sensor_id;sensor_type;location;lat;lon;timestamp;P1;durP1;ratioP1;P2;durP2;ratioP2
83362;SDS011;73275;50.882;5.984;2024-01-30T00:00:10;12.47;;;5.40;;
83362;SDS011;73275;50.882;5.984;2024-01-30T00:02:35;11.68;;;4.97;;
83362;SDS011;73275;50.882;5.984;2024-01-30T00:05:08;12.93;;;5.77;;
83362;SDS011;73275;50.882;5.984;2024-01-30T00:07:34;11.88;;;5.10;;
83362;SDS011;73275;50.882;5.984;2024-01-30T00:10:02;11.33;;;5.83;;
83362;SDS011;73275;50.882;5.984;2024-01-30T00:12:28;13.38;;;5.40;;
83362;SDS011;73275;50.882;5.984;2024-01-30T00:14:53;11.43;;;5.30;;
83362;SDS011;73275;50.882;5.984;2024-01-30T00:17:19;11.20;;;5.03;;
83362;SDS011;73275;50.882;5.984;2024-01-30T00:19:46;9.60;;;5.20;;
83362;SDS011;73275;50.882;5.984;2024-01-30T00:22:11;14.57;;;5.20;;
83362;SDS011;73275;50.882;5.984;2024-01-30T00:24:39;12.93;;;6.03;;
83362;SDS011;73275;50.882;5.984;2024-01-30T00:27:05;11.00;;;5.43;;
83362;SDS011;73275;50.882;5.984;2024-01-30T00:29:33;12.05;;;5.57;;
83362;SDS011;73275;50.882;5.984;2024-01-30T00:31:59;10.75;;;5.40;;
83362;SDS011;73275;50.882;5.984;2024-01-30T00:34:25;12.33;;;6.13;;
83362;SDS011;73275;50.882;5.984;2024-01-30T00:36:50;14.23;;;5.88;;
83362;SDS011;73275;50.882;5.984;2024-01-30T00:39:19;11.55;;;5.40;;
83362;SDS011;73275;50.882;5.984;2024-01-30T00:41:45;11.87;;;5.20;;
83362;SDS011;73275;50.882;5.984;2024-01-30T00:44:10;10.70;;;5.47;;
83362;SDS011;73275;50.882;5.984;2024-01-30T00:46:36;11.32;;;5.50;;
83362;SDS011;73275;50.882;5.984;2024-01-30T00:49:01;10.80;;;5.37;;
83362;SDS011;73275;50.882;5.984;2024-01-30T00:51:27;11.52;;;4.72;;
83362;SDS011;73275;50.882;5.984;2024-01-30T00:53:54;12.68;;;5.15;;
83362;SDS011;73275;50.882;5.984;2024-01-30T00:56:20;9.77;;;5.03;;
83362;SDS011;73275;50.882;5.984;2024-01-30T00:58:46;9.13;;;4.97;;
83362;SDS011;73275;50.882;5.984;2024-01-30T01:01:11;9.43;;;5.03;;
83362;SDS011;73275;50.882;5.984;2024-01-30T01:03:38;10.88;;;5.03;;
83362;SDS011;73275;50.882;5.984;2024-01-30T01:06:05;10.00;;;5.20;;
83362;SDS011;73275;50.882;5.984;2024-01-30T01:08:31;9.30;;;4.63;;
83362;SDS011;73275;50.882;5.984;2024-01-30T01:10:56;11.07;;;5.20;;
83362;SDS011;73275;50.882;5.984;2024-01-30T01:13:22;11.67;;;5.10;;
83362;SDS011;73275;50.882;5.984;2024-01-30T01:15:47;11.43;;;4.75;;
83362;SDS011;73275;50.882;5.984;2024-01-30T01:18:12;9.70;;;5.18;;
83362;SDS011;73275;50.882;5.984;2024-01-30T01:20:38;10.20;;;4.80;;
83362;SDS011;73275;50.882;5.984;2024-01-30T01:23:13;9.13;;;5.00;;
83362;SDS011;73275;50.882;5.984;2024-01-30T01:25:39;10.75;;;5.00;;
83362;SDS011;73275;50.882;5.984;2024-01-30T01:28:05;10.57;;;4.70;;
83362;SDS011;73275;50.882;5.984;2024-01-30T01:30:34;8.90;;;4.85;;
83362;SDS011;73275;50.882;5.984;2024-01-30T01:33:00;10.15;;;4.57;;
83362;SDS011;73275;50.882;5.984;2024-01-30T01:35:30;9.38;;;4.97;;
83362;SDS011;73275;50.882;5.984;2024-01-30T01:38:01;10.90;;;4.63;;
83362;SDS011;73275;50.882;5.984;2024-01-30T01:40:27;9.10;;;4.43;;
83362;SDS011;73275;50.882;5.984;2024-01-30T01:42:53;8.10;;;4.67;;
83362;SDS011;73275;50.882;5.984;2024-01-30T01:45:19;7.35;;;4.22;;
83362;SDS011;73275;50.882;5.984;2024-01-30T01:47:46;9.90;;;4.93;;
83362;SDS011;73275;50.882;5.984;2024-01-30T01:50:15;10.02;;;4.35;;
83362;SDS011;73275;50.882;5.984;2024-01-30T01:52:44;9.10;;;3.72;;
83362;SDS011;73275;50.882;5.984;2024-01-30T01:55:13;9.10;;;4.07;;
83362;SDS011;73275;50.882;5.984;2024-01-30T01:57:39;8.27;;;4.30;;
83362;SDS011;73275;50.882;5.984;2024-01-30T02:00:06;8.88;;;4.32;;
83362;SDS011;73275;50.882;5.984;2024-01-30T02:02:35;10.10;;;3.88;;
83362;SDS011;73275;50.882;5.984;2024-01-30T02:05:01;7.57;;;3.78;;
83362;SDS011;73275;50.882;5.984;2024-01-30T02:07:27;7.73;;;3.70;;
83362;SDS011;73275;50.882;5.984;2024-01-30T02:09:54;7.75;;;4.00;;
83362;SDS011;73275;50.882;5.984;2024-01-30T02:12:20;8.15;;;3.97;;
83362;SDS011;73275;50.882;5.984;2024-01-30T02:14:48;7.60;;;3.30;;
83362;SDS011;73275;50.882;5.984;2024-01-30T02:17:15;6.97;;;3.53;;
83362;SDS011;73275;50.882;5.984;2024-01-30T02:19:41;6.63;;;3.47;;
83362;SDS011;73275;50.882;5.984;2024-01-30T02:22:07;6.77;;;3.50;;
83362;SDS011;73275;50.882;5.984;2024-01-30T02:24:33;6.88;;;3.47;;
83362;SDS011;73275;50.882;5.984;2024-01-30T02:26:58;8.27;;;3.37;;
83362;SDS011;73275;50.882;5.984;2024-01-30T02:29:23;5.73;;;2.97;;
83362;SDS011;73275;50.882;5.984;2024-01-30T02:31:49;9.18;;;3.80;;
83362;SDS011;73275;50.882;5.984;2024-01-30T02:34:14;9.30;;;3.37;;
83362;SDS011;73275;50.882;5.984;2024-01-30T02:36:43;6.37;;;3.30;;
83362;SDS011;73275;50.882;5.984;2024-01-30T02:39:09;8.48;;;3.22;;
83362;SDS011;73275;50.882;5.984;2024-01-30T02:41:34;8.97;;;3.30;;
83362;SDS011;73275;50.882;5.984;2024-01-30T02:44:00;8.15;;;3.30;;
83362;SDS011;73275;50.882;5.984;2024-01-30T02:46:26;6.50;;;2.88;;
83362;SDS011;73275;50.882;5.984;2024-01-30T02:48:51;7.60;;;3.40;;
83362;SDS011;73275;50.882;5.984;2024-01-30T02:51:17;6.53;;;3.17;;
83362;SDS011;73275;50.882;5.984;2024-01-30T02:53:42;6.27;;;3.63;;
83362;SDS011;73275;50.882;5.984;2024-01-30T02:56:07;6.65;;;3.28;;
83362;SDS011;73275;50.882;5.984;2024-01-30T02:58:35;6.83;;;3.03;;
83362;SDS011;73275;50.882;5.984;2024-01-30T03:01:01;10.00;;;3.45;;
83362;SDS011;73275;50.882;5.984;2024-01-30T03:03:27;6.35;;;2.97;;
83362;SDS011;73275;50.882;5.984;2024-01-30T03:05:53;6.50;;;3.17;;
83362;SDS011;73275;50.882;5.984;2024-01-30T03:08:18;5.77;;;2.70;;
83362;SDS011;73275;50.882;5.984;2024-01-30T03:10:43;6.60;;;3.22;;
83362;SDS011;73275;50.882;5.984;2024-01-30T03:13:09;6.77;;;2.97;;
83362;SDS011;73275;50.882;5.984;2024-01-30T03:15:34;7.57;;;3.23;;
83362;SDS011;73275;50.882;5.984;2024-01-30T03:18:00;9.00;;;3.30;;
83362;SDS011;73275;50.882;5.984;2024-01-30T03:20:25;6.38;;;3.08;;
83362;SDS011;73275;50.882;5.984;2024-01-30T03:22:53;9.20;;;3.77;;
83362;SDS011;73275;50.882;5.984;2024-01-30T03:25:19;7.47;;;3.47;;
83362;SDS011;73275;50.882;5.984;2024-01-30T03:27:45;8.57;;;2.70;;
83362;SDS011;73275;50.882;5.984;2024-01-30T03:30:11;7.63;;;3.33;;
83362;SDS011;73275;50.882;5.984;2024-01-30T03:32:36;7.50;;;3.40;;
83362;SDS011;73275;50.882;5.984;2024-01-30T03:35:02;5.43;;;3.00;;
83362;SDS011;73275;50.882;5.984;2024-01-30T03:37:27;5.83;;;2.80;;
83362;SDS011;73275;50.882;5.984;2024-01-30T03:39:53;8.90;;;3.10;;
83362;SDS011;73275;50.882;5.984;2024-01-30T03:42:18;7.60;;;3.33;;
83362;SDS011;73275;50.882;5.984;2024-01-30T03:44:44;5.73;;;2.90;;
83362;SDS011;73275;50.882;5.984;2024-01-30T03:47:09;7.53;;;3.13;;
83362;SDS011;73275;50.882;5.984;2024-01-30T03:49:34;6.60;;;3.20;;
83362;SDS011;73275;50.882;5.984;2024-01-30T03:52:00;6.75;;;3.13;;
83362;SDS011;73275;50.882;5.984;2024-01-30T03:54:25;6.57;;;3.10;;
83362;SDS011;73275;50.882;5.984;2024-01-30T03:56:51;7.50;;;3.07;;
83362;SDS011;73275;50.882;5.984;2024-01-30T03:59:16;7.30;;;2.97;;
83362;SDS011;73275;50.882;5.984;2024-01-30T04:01:47;6.45;;;2.95;;
83362;SDS011;73275;50.882;5.984;2024-01-30T04:04:12;5.73;;;3.13;;
83362;SDS011;73275;50.882;5.984;2024-01-30T04:06:38;4.93;;;2.60;;
83362;SDS011;73275;50.882;5.984;2024-01-30T04:09:03;5.03;;;2.40;;
83362;SDS011;73275;50.882;5.984;2024-01-30T04:11:29;7.27;;;2.70;;
83362;SDS011;73275;50.882;5.984;2024-01-30T04:13:54;8.27;;;2.83;;
83362;SDS011;73275;50.882;5.984;2024-01-30T04:16:20;4.53;;;2.83;;
83362;SDS011;73275;50.882;5.984;2024-01-30T04:18:47;6.07;;;2.65;;
83362;SDS011;73275;50.882;5.984;2024-01-30T04:21:12;7.50;;;3.30;;
83362;SDS011;73275;50.882;5.984;2024-01-30T04:23:37;5.63;;;2.63;;
83362;SDS011;73275;50.882;5.984;2024-01-30T04:26:05;6.15;;;2.90;;
83362;SDS011;73275;50.882;5.984;2024-01-30T04:28:30;5.13;;;2.80;;
83362;SDS011;73275;50.882;5.984;2024-01-30T04:30:56;5.73;;;2.70;;
83362;SDS011;73275;50.882;5.984;2024-01-30T04:33:21;4.40;;;2.37;;
83362;SDS011;73275;50.882;5.984;2024-01-30T04:35:46;4.03;;;2.60;;
83362;SDS011;73275;50.882;5.984;2024-01-30T04:38:12;5.45;;;2.50;;
83362;SDS011;73275;50.882;5.984;2024-01-30T04:40:37;6.57;;;2.77;;
83362;SDS011;73275;50.882;5.984;2024-01-30T04:43:03;7.47;;;3.03;;
83362;SDS011;73275;50.882;5.984;2024-01-30T04:45:30;5.53;;;2.63;;
83362;SDS011;73275;50.882;5.984;2024-01-30T04:47:56;5.67;;;2.90;;
83362;SDS011;73275;50.882;5.984;2024-01-30T04:50:22;6.30;;;3.30;;
83362;SDS011;73275;50.882;5.984;2024-01-30T04:52:48;6.37;;;2.60;;
83362;SDS011;73275;50.882;5.984;2024-01-30T04:55:13;5.32;;;2.65;;
83362;SDS011;73275;50.882;5.984;2024-01-30T04:57:39;6.70;;;2.70;;
83362;SDS011;73275;50.882;5.984;2024-01-30T05:00:04;6.17;;;2.70;;
83362;SDS011;73275;50.882;5.984;2024-01-30T05:02:31;4.72;;;2.70;;
83362;SDS011;73275;50.882;5.984;2024-01-30T05:04:56;5.63;;;2.65;;
83362;SDS011;73275;50.882;5.984;2024-01-30T05:07:23;6.83;;;2.60;;
83362;SDS011;73275;50.882;5.984;2024-01-30T05:09:49;4.55;;;2.63;;
83362;SDS011;73275;50.882;5.984;2024-01-30T05:12:15;6.63;;;2.83;;
83362;SDS011;73275;50.882;5.984;2024-01-30T05:14:43;4.53;;;2.50;;
83362;SDS011;73275;50.882;5.984;2024-01-30T05:17:11;4.03;;;1.95;;
83362;SDS011;73275;50.882;5.984;2024-01-30T05:19:38;6.45;;;2.70;;
83362;SDS011;73275;50.882;5.984;2024-01-30T05:22:06;5.77;;;2.97;;
83362;SDS011;73275;50.882;5.984;2024-01-30T05:24:32;6.60;;;3.03;;
83362;SDS011;73275;50.882;5.984;2024-01-30T05:26:57;5.87;;;2.90;;
83362;SDS011;73275;50.882;5.984;2024-01-30T05:29:22;5.80;;;2.93;;
83362;SDS011;73275;50.882;5.984;2024-01-30T05:31:49;7.00;;;2.92;;
83362;SDS011;73275;50.882;5.984;2024-01-30T05:34:15;7.40;;;3.10;;
83362;SDS011;73275;50.882;5.984;2024-01-30T05:36:40;5.78;;;3.13;;
83362;SDS011;73275;50.882;5.984;2024-01-30T05:39:06;6.57;;;3.00;;
83362;SDS011;73275;50.882;5.984;2024-01-30T05:41:32;5.90;;;2.90;;
83362;SDS011;73275;50.882;5.984;2024-01-30T05:43:57;6.57;;;2.83;;
83362;SDS011;73275;50.882;5.984;2024-01-30T05:46:23;8.57;;;3.20;;
83362;SDS011;73275;50.882;5.984;2024-01-30T05:48:48;6.25;;;3.15;;
83362;SDS011;73275;50.882;5.984;2024-01-30T05:51:14;6.03;;;2.83;;
83362;SDS011;73275;50.882;5.984;2024-01-30T05:53:39;5.77;;;2.90;;
83362;SDS011;73275;50.882;5.984;2024-01-30T05:56:05;8.80;;;3.63;;
83362;SDS011;73275;50.882;5.984;2024-01-30T05:58:34;6.13;;;3.20;;
83362;SDS011;73275;50.882;5.984;2024-01-30T06:01:02;6.35;;;3.40;;
83362;SDS011;73275;50.882;5.984;2024-01-30T06:03:32;7.63;;;3.10;;
83362;SDS011;73275;50.882;5.984;2024-01-30T06:05:58;5.95;;;3.40;;
83362;SDS011;73275;50.882;5.984;2024-01-30T06:08:24;6.77;;;3.03;;
83362;SDS011;73275;50.882;5.984;2024-01-30T06:10:49;6.87;;;3.20;;
83362;SDS011;73275;50.882;5.984;2024-01-30T06:13:15;7.40;;;3.23;;
83362;SDS011;73275;50.882;5.984;2024-01-30T06:15:40;6.78;;;3.17;;
83362;SDS011;73275;50.882;5.984;2024-01-30T06:18:05;5.70;;;3.17;;
83362;SDS011;73275;50.882;5.984;2024-01-30T06:20:31;8.30;;;2.87;;
83362;SDS011;73275;50.882;5.984;2024-01-30T06:22:56;9.67;;;3.40;;
83362;SDS011;73275;50.882;5.984;2024-01-30T06:25:22;7.78;;;3.47;;
83362;SDS011;73275;50.882;5.984;2024-01-30T06:27:49;6.07;;;2.70;;
83362;SDS011;73275;50.882;5.984;2024-01-30T06:30:18;5.90;;;2.95;;
83362;SDS011;73275;50.882;5.984;2024-01-30T06:32:48;5.23;;;2.87;;
83362;SDS011;73275;50.882;5.984;2024-01-30T06:35:20;7.57;;;3.03;;
83362;SDS011;73275;50.882;5.984;2024-01-30T06:37:48;8.07;;;3.60;;
83362;SDS011;73275;50.882;5.984;2024-01-30T06:40:13;7.40;;;3.50;;
83362;SDS011;73275;50.882;5.984;2024-01-30T06:42:44;6.83;;;3.50;;
83362;SDS011;73275;50.882;5.984;2024-01-30T06:45:13;8.40;;;4.07;;
83362;SDS011;73275;50.882;5.984;2024-01-30T06:47:46;6.77;;;3.30;;
83362;SDS011;73275;50.882;5.984;2024-01-30T06:50:11;7.15;;;3.25;;
83362;SDS011;73275;50.882;5.984;2024-01-30T06:52:37;10.98;;;3.97;;
83362;SDS011;73275;50.882;5.984;2024-01-30T06:55:05;8.30;;;3.57;;
83362;SDS011;73275;50.882;5.984;2024-01-30T06:57:31;10.23;;;4.18;;
83362;SDS011;73275;50.882;5.984;2024-01-30T06:59:57;9.63;;;3.77;;
83362;SDS011;73275;50.882;5.984;2024-01-30T07:02:22;7.82;;;2.70;;
83362;SDS011;73275;50.882;5.984;2024-01-30T07:04:47;7.20;;;3.47;;
83362;SDS011;73275;50.882;5.984;2024-01-30T07:07:14;10.43;;;3.65;;
83362;SDS011;73275;50.882;5.984;2024-01-30T07:09:40;6.77;;;3.07;;
83362;SDS011;73275;50.882;5.984;2024-01-30T07:12:06;7.80;;;3.60;;
83362;SDS011;73275;50.882;5.984;2024-01-30T07:14:31;6.47;;;3.30;;
83362;SDS011;73275;50.882;5.984;2024-01-30T07:16:59;9.45;;;3.20;;
83362;SDS011;73275;50.882;5.984;2024-01-30T07:19:32;9.50;;;3.30;;
83362;SDS011;73275;50.882;5.984;2024-01-30T07:22:26;7.47;;;3.33;;
83362;SDS011;73275;50.882;5.984;2024-01-30T07:25:38;8.37;;;3.50;;
83362;SDS011;73275;50.882;5.984;2024-01-30T07:28:26;8.68;;;3.08;;
83362;SDS011;73275;50.882;5.984;2024-01-30T07:31:10;8.52;;;3.97;;
83362;SDS011;73275;50.882;5.984;2024-01-30T07:34:09;10.38;;;3.38;;
83362;SDS011;73275;50.882;5.984;2024-01-30T07:40:28;6.83;;;3.27;;
83362;SDS011;73275;50.882;5.984;2024-01-30T07:43:48;9.55;;;3.33;;
83362;SDS011;73275;50.882;5.984;2024-01-30T07:46:37;7.38;;;3.67;;
83362;SDS011;73275;50.882;5.984;2024-01-30T08:03:45;7.30;;;3.53;;
83362;SDS011;73275;50.882;5.984;2024-01-30T08:07:00;11.07;;;3.65;;
83362;SDS011;73275;50.882;5.984;2024-01-30T08:10:18;10.48;;;3.88;;
83362;SDS011;73275;50.882;5.984;2024-01-30T08:21:01;10.25;;;3.90;;
83362;SDS011;73275;50.882;5.984;2024-01-30T08:24:28;9.80;;;3.58;;
83362;SDS011;73275;50.882;5.984;2024-01-30T08:42:04;8.82;;;3.67;;
83362;SDS011;73275;50.882;5.984;2024-01-30T08:45:06;6.82;;;3.38;;
83362;SDS011;73275;50.882;5.984;2024-01-30T08:47:53;7.90;;;3.63;;
83362;SDS011;73275;50.882;5.984;2024-01-30T08:50:53;8.80;;;3.85;;
83362;SDS011;73275;50.882;5.984;2024-01-30T08:54:20;8.95;;;4.05;;
83362;SDS011;73275;50.882;5.984;2024-01-30T08:56:46;7.78;;;3.72;;
83362;SDS011;73275;50.882;5.984;2024-01-30T08:59:11;7.50;;;3.13;;
83362;SDS011;73275;50.882;5.984;2024-01-30T09:01:39;9.63;;;3.80;;
83362;SDS011;73275;50.882;5.984;2024-01-30T09:04:05;6.47;;;2.90;;
83362;SDS011;73275;50.882;5.984;2024-01-30T09:06:30;6.97;;;3.40;;
83362;SDS011;73275;50.882;5.984;2024-01-30T09:08:56;8.00;;;3.47;;
83362;SDS011;73275;50.882;5.984;2024-01-30T09:11:23;6.72;;;3.35;;
83362;SDS011;73275;50.882;5.984;2024-01-30T09:13:48;7.27;;;3.43;;
83362;SDS011;73275;50.882;5.984;2024-01-30T09:16:14;7.60;;;3.38;;
83362;SDS011;73275;50.882;5.984;2024-01-30T09:18:41;12.13;;;3.50;;
83362;SDS011;73275;50.882;5.984;2024-01-30T09:21:06;8.25;;;2.53;;
83362;SDS011;73275;50.882;5.984;2024-01-30T09:23:32;9.13;;;3.70;;
83362;SDS011;73275;50.882;5.984;2024-01-30T09:25:58;8.52;;;3.30;;
83362;SDS011;73275;50.882;5.984;2024-01-30T09:28:23;7.13;;;3.70;;
83362;SDS011;73275;50.882;5.984;2024-01-30T09:30:49;6.88;;;2.97;;
83362;SDS011;73275;50.882;5.984;2024-01-30T09:33:14;9.70;;;3.30;;
83362;SDS011;73275;50.882;5.984;2024-01-30T09:35:40;8.87;;;3.30;;
83362;SDS011;73275;50.882;5.984;2024-01-30T09:38:05;30.85;;;4.75;;
83362;SDS011;73275;50.882;5.984;2024-01-30T09:40:31;11.77;;;4.07;;
83362;SDS011;73275;50.882;5.984;2024-01-30T09:42:56;13.70;;;3.53;;
83362;SDS011;73275;50.882;5.984;2024-01-30T09:45:25;10.63;;;3.30;;
83362;SDS011;73275;50.882;5.984;2024-01-30T09:47:51;23.52;;;4.47;;
83362;SDS011;73275;50.882;5.984;2024-01-30T09:50:17;14.90;;;3.70;;
83362;SDS011;73275;50.882;5.984;2024-01-30T09:52:44;8.23;;;2.83;;
83362;SDS011;73275;50.882;5.984;2024-01-30T09:55:10;8.35;;;3.38;;
83362;SDS011;73275;50.882;5.984;2024-01-30T09:57:35;6.97;;;2.90;;
83362;SDS011;73275;50.882;5.984;2024-01-30T10:00:02;8.32;;;3.20;;
83362;SDS011;73275;50.882;5.984;2024-01-30T10:02:33;7.57;;;3.33;;
83362;SDS011;73275;50.882;5.984;2024-01-30T10:05:00;9.25;;;3.38;;
83362;SDS011;73275;50.882;5.984;2024-01-30T10:07:26;7.73;;;3.60;;
83362;SDS011;73275;50.882;5.984;2024-01-30T10:09:52;15.15;;;4.13;;
83362;SDS011;73275;50.882;5.984;2024-01-30T10:12:18;9.57;;;3.90;;
83362;SDS011;73275;50.882;5.984;2024-01-30T10:14:44;6.95;;;2.67;;
83362;SDS011;73275;50.882;5.984;2024-01-30T10:17:09;5.97;;;3.53;;
83362;SDS011;73275;50.882;5.984;2024-01-30T10:19:37;8.55;;;3.40;;
83362;SDS011;73275;50.882;5.984;2024-01-30T10:22:03;7.63;;;3.10;;
83362;SDS011;73275;50.882;5.984;2024-01-30T10:24:29;10.63;;;4.10;;
83362;SDS011;73275;50.882;5.984;2024-01-30T10:26:55;11.65;;;3.15;;
83362;SDS011;73275;50.882;5.984;2024-01-30T10:29:20;15.27;;;4.00;;
83362;SDS011;73275;50.882;5.984;2024-01-30T10:31:56;7.90;;;4.17;;
83362;SDS011;73275;50.882;5.984;2024-01-30T10:34:25;6.80;;;3.08;;
83362;SDS011;73275;50.882;5.984;2024-01-30T10:36:51;8.50;;;3.55;;
83362;SDS011;73275;50.882;5.984;2024-01-30T10:39:37;8.40;;;3.58;;
83362;SDS011;73275;50.882;5.984;2024-01-30T10:42:04;11.43;;;3.67;;
83362;SDS011;73275;50.882;5.984;2024-01-30T10:44:34;9.65;;;3.60;;
83362;SDS011;73275;50.882;5.984;2024-01-30T10:47:06;7.70;;;3.90;;
83362;SDS011;73275;50.882;5.984;2024-01-30T10:49:36;8.65;;;3.50;;
83362;SDS011;73275;50.882;5.984;2024-01-30T10:52:03;9.38;;;3.83;;
83362;SDS011;73275;50.882;5.984;2024-01-30T10:54:30;7.73;;;3.37;;
83362;SDS011;73275;50.882;5.984;2024-01-30T10:56:58;10.27;;;3.80;;
83362;SDS011;73275;50.882;5.984;2024-01-30T10:59:26;12.55;;;4.15;;
83362;SDS011;73275;50.882;5.984;2024-01-30T11:01:53;11.93;;;3.78;;
83362;SDS011;73275;50.882;5.984;2024-01-30T11:04:19;9.23;;;4.03;;
83362;SDS011;73275;50.882;5.984;2024-01-30T11:06:45;9.73;;;4.22;;
83362;SDS011;73275;50.882;5.984;2024-01-30T11:09:10;9.00;;;3.57;;
83362;SDS011;73275;50.882;5.984;2024-01-30T11:14:25;9.02;;;3.55;;
83362;SDS011;73275;50.882;5.984;2024-01-30T11:16:51;9.15;;;4.43;;
83362;SDS011;73275;50.882;5.984;2024-01-30T11:19:22;12.70;;;3.67;;
83362;SDS011;73275;50.882;5.984;2024-01-30T11:21:50;8.10;;;3.78;;
83362;SDS011;73275;50.882;5.984;2024-01-30T11:24:19;10.13;;;4.00;;
83362;SDS011;73275;50.882;5.984;2024-01-30T11:26:47;8.40;;;3.60;;
83362;SDS011;73275;50.882;5.984;2024-01-30T11:29:13;10.40;;;4.55;;
83362;SDS011;73275;50.882;5.984;2024-01-30T11:31:40;9.82;;;3.95;;
83362;SDS011;73275;50.882;5.984;2024-01-30T11:34:05;11.10;;;4.10;;
83362;SDS011;73275;50.882;5.984;2024-01-30T11:36:31;9.18;;;3.72;;
83362;SDS011;73275;50.882;5.984;2024-01-30T11:38:59;11.57;;;4.00;;
83362;SDS011;73275;50.882;5.984;2024-01-30T11:41:25;14.23;;;5.00;;
83362;SDS011;73275;50.882;5.984;2024-01-30T11:43:51;8.33;;;3.60;;
83362;SDS011;73275;50.882;5.984;2024-01-30T11:46:18;8.55;;;4.80;;
83362;SDS011;73275;50.882;5.984;2024-01-30T11:48:43;12.97;;;4.30;;
83362;SDS011;73275;50.882;5.984;2024-01-30T11:51:09;13.40;;;5.25;;
83362;SDS011;73275;50.882;5.984;2024-01-30T11:53:34;11.57;;;4.43;;
83362;SDS011;73275;50.882;5.984;2024-01-30T11:55:59;11.53;;;4.27;;
83362;SDS011;73275;50.882;5.984;2024-01-30T11:58:25;8.17;;;3.90;;
83362;SDS011;73275;50.882;5.984;2024-01-30T12:00:55;13.20;;;4.93;;
83362;SDS011;73275;50.882;5.984;2024-01-30T12:03:21;13.52;;;4.07;;
83362;SDS011;73275;50.882;5.984;2024-01-30T12:05:47;10.32;;;4.93;;
83362;SDS011;73275;50.882;5.984;2024-01-30T12:08:20;8.82;;;3.95;;
83362;SDS011;73275;50.882;5.984;2024-01-30T12:10:45;10.90;;;4.20;;
83362;SDS011;73275;50.882;5.984;2024-01-30T12:13:11;12.83;;;5.03;;
83362;SDS011;73275;50.882;5.984;2024-01-30T12:15:37;13.88;;;4.97;;
83362;SDS011;73275;50.882;5.984;2024-01-30T12:18:05;9.13;;;3.97;;
83362;SDS011;73275;50.882;5.984;2024-01-30T12:20:31;13.43;;;5.00;;
83362;SDS011;73275;50.882;5.984;2024-01-30T12:22:57;11.77;;;5.27;;
83362;SDS011;73275;50.882;5.984;2024-01-30T12:25:23;11.52;;;4.70;;
83362;SDS011;73275;50.882;5.984;2024-01-30T12:27:49;9.07;;;4.17;;
83362;SDS011;73275;50.882;5.984;2024-01-30T12:30:16;10.07;;;5.05;;
83362;SDS011;73275;50.882;5.984;2024-01-30T12:32:45;12.15;;;5.13;;
83362;SDS011;73275;50.882;5.984;2024-01-30T12:35:15;12.43;;;4.80;;
83362;SDS011;73275;50.882;5.984;2024-01-30T12:37:42;7.37;;;4.23;;
83362;SDS011;73275;50.882;5.984;2024-01-30T12:40:09;9.73;;;4.20;;
83362;SDS011;73275;50.882;5.984;2024-01-30T12:42:36;11.50;;;4.43;;
83362;SDS011;73275;50.882;5.984;2024-01-30T12:45:02;9.45;;;4.57;;
83362;SDS011;73275;50.882;5.984;2024-01-30T12:47:29;9.93;;;4.77;;
83362;SDS011;73275;50.882;5.984;2024-01-30T12:49:55;13.38;;;5.22;;
83362;SDS011;73275;50.882;5.984;2024-01-30T12:52:21;9.83;;;4.80;;
83362;SDS011;73275;50.882;5.984;2024-01-30T12:54:47;14.33;;;5.33;;
83362;SDS011;73275;50.882;5.984;2024-01-30T12:57:13;10.70;;;5.32;;
83362;SDS011;73275;50.882;5.984;2024-01-30T12:59:38;11.47;;;5.03;;
83362;SDS011;73275;50.882;5.984;2024-01-30T13:02:04;11.57;;;4.95;;
83362;SDS011;73275;50.882;5.984;2024-01-30T13:04:31;10.43;;;4.90;;
83362;SDS011;73275;50.882;5.984;2024-01-30T13:06:56;13.30;;;5.30;;
83362;SDS011;73275;50.882;5.984;2024-01-30T13:09:23;13.48;;;5.47;;
83362;SDS011;73275;50.882;5.984;2024-01-30T13:11:48;12.00;;;5.40;;
83362;SDS011;73275;50.882;5.984;2024-01-30T13:14:14;12.23;;;5.10;;
83362;SDS011;73275;50.882;5.984;2024-01-30T13:16:39;11.70;;;5.93;;
83362;SDS011;73275;50.882;5.984;2024-01-30T13:19:05;15.53;;;5.93;;
83362;SDS011;73275;50.882;5.984;2024-01-30T13:21:31;11.43;;;4.50;;
83362;SDS011;73275;50.882;5.984;2024-01-30T13:23:56;12.30;;;5.70;;
83362;SDS011;73275;50.882;5.984;2024-01-30T13:26:22;11.13;;;5.15;;
83362;SDS011;73275;50.882;5.984;2024-01-30T13:28:47;18.13;;;5.30;;
83362;SDS011;73275;50.882;5.984;2024-01-30T13:31:13;12.33;;;5.30;;
83362;SDS011;73275;50.882;5.984;2024-01-30T13:33:39;11.20;;;5.55;;
83362;SDS011;73275;50.882;5.984;2024-01-30T13:36:05;12.63;;;5.23;;
83362;SDS011;73275;50.882;5.984;2024-01-30T13:38:35;11.38;;;5.30;;
83362;SDS011;73275;50.882;5.984;2024-01-30T13:41:00;13.77;;;5.63;;
83362;SDS011;73275;50.882;5.984;2024-01-30T13:43:26;12.52;;;5.05;;
83362;SDS011;73275;50.882;5.984;2024-01-30T13:45:52;12.97;;;5.90;;
83362;SDS011;73275;50.882;5.984;2024-01-30T13:48:18;13.90;;;5.95;;
83362;SDS011;73275;50.882;5.984;2024-01-30T13:50:43;9.90;;;5.03;;
83362;SDS011;73275;50.882;5.984;2024-01-30T13:53:09;13.90;;;5.78;;
83362;SDS011;73275;50.882;5.984;2024-01-30T13:55:34;10.43;;;5.00;;
83362;SDS011;73275;50.882;5.984;2024-01-30T13:58:00;11.75;;;6.32;;
83362;SDS011;73275;50.882;5.984;2024-01-30T14:00:29;18.10;;;6.22;;
83362;SDS011;73275;50.882;5.984;2024-01-30T14:02:54;13.87;;;6.30;;
83362;SDS011;73275;50.882;5.984;2024-01-30T14:05:21;9.90;;;4.82;;
83362;SDS011;73275;50.882;5.984;2024-01-30T14:07:50;14.15;;;6.47;;
83362;SDS011;73275;50.882;5.984;2024-01-30T14:10:17;10.93;;;5.07;;
83362;SDS011;73275;50.882;5.984;2024-01-30T14:12:43;10.80;;;4.87;;
83362;SDS011;73275;50.882;5.984;2024-01-30T14:15:09;8.63;;;4.50;;
83362;SDS011;73275;50.882;5.984;2024-01-30T14:17:36;9.85;;;4.95;;
83362;SDS011;73275;50.882;5.984;2024-01-30T14:37:32;6.17;;;2.47;;
83362;SDS011;73275;50.882;5.984;2024-01-30T14:40:00;6.60;;;2.63;;
83362;SDS011;73275;50.882;5.984;2024-01-30T14:42:26;6.63;;;2.17;;
83362;SDS011;73275;50.882;5.984;2024-01-30T14:44:56;8.13;;;2.00;;
83362;SDS011;73275;50.882;5.984;2024-01-30T14:47:22;3.70;;;1.73;;
83362;SDS011;73275;50.882;5.984;2024-01-30T14:49:57;5.95;;;2.03;;
83362;SDS011;73275;50.882;5.984;2024-01-30T14:52:27;9.75;;;1.95;;
83362;SDS011;73275;50.882;5.984;2024-01-30T14:54:56;4.80;;;1.80;;
83362;SDS011;73275;50.882;5.984;2024-01-30T14:57:24;3.23;;;1.53;;
83362;SDS011;73275;50.882;5.984;2024-01-30T14:59:53;4.88;;;2.22;;
83362;SDS011;73275;50.882;5.984;2024-01-30T15:02:22;3.88;;;1.73;;
83362;SDS011;73275;50.882;5.984;2024-01-30T15:04:48;5.90;;;1.60;;
83362;SDS011;73275;50.882;5.984;2024-01-30T15:07:23;2.92;;;1.20;;
83362;SDS011;73275;50.882;5.984;2024-01-30T15:10:08;4.80;;;1.50;;
83362;SDS011;73275;50.882;5.984;2024-01-30T15:12:41;2.38;;;1.25;;
83362;SDS011;73275;50.882;5.984;2024-01-30T15:15:43;2.88;;;1.52;;
83362;SDS011;73275;50.882;5.984;2024-01-30T15:18:09;4.43;;;0.87;;
83362;SDS011;73275;50.882;5.984;2024-01-30T15:20:36;2.03;;;0.90;;
83362;SDS011;73275;50.882;5.984;2024-01-30T15:23:08;3.55;;;1.20;;
83362;SDS011;73275;50.882;5.984;2024-01-30T15:25:40;2.83;;;1.30;;
83362;SDS011;73275;50.882;5.984;2024-01-30T15:28:18;2.90;;;1.17;;
83362;SDS011;73275;50.882;5.984;2024-01-30T15:30:54;2.87;;;0.70;;
83362;SDS011;73275;50.882;5.984;2024-01-30T15:33:22;2.03;;;1.00;;
83362;SDS011;73275;50.882;5.984;2024-01-30T15:35:48;2.15;;;0.90;;
83362;SDS011;73275;50.882;5.984;2024-01-30T15:38:46;3.75;;;1.30;;
83362;SDS011;73275;50.882;5.984;2024-01-30T15:41:12;4.67;;;0.80;;
83362;SDS011;73275;50.882;5.984;2024-01-30T15:43:43;1.80;;;0.88;;
83362;SDS011;73275;50.882;5.984;2024-01-30T15:49:44;3.13;;;0.93;;
83362;SDS011;73275;50.882;5.984;2024-01-30T16:13:05;2.72;;;0.90;;
83362;SDS011;73275;50.882;5.984;2024-01-30T16:15:34;1.00;;;0.70;;